sensor_id;sensor_type;location;lat;lon;timestamp;pressure;altitude;pressure_sealevel;temperature;humidity
23616;BME280;11985;49.404;7.734;2023-06-04T00:04:15;97406.97;;;13.51;52.07
23616;BME280;11985;49.404;7.734;2023-06-04T00:09:18;97407.63;;;13.46;52.07
23616;BME280;11985;49.404;7.734;2023-06-04T00:14:20;97398.50;;;13.42;52.26
23616;BME280;11985;49.404;7.734;2023-06-04T00:19:21;97401.16;;;13.42;52.20
23616;BME280;11985;49.404;7.734;2023-06-04T00:24:24;97408.22;;;13.30;52.63
23616;BME280;11985;49.404;7.734;2023-06-04T00:29:26;97400.16;;;13.18;52.63
23616;BME280;11985;49.404;7.734;2023-06-04T00:34:27;97394.88;;;13.18;52.69
23616;BME280;11985;49.404;7.734;2023-06-04T00:39:30;97403.84;;;13.17;52.68
23616;BME280;11985;49.404;7.734;2023-06-04T00:44:32;97393.53;;;13.09;52.75
23616;BME280;11985;49.404;7.734;2023-06-04T00:49:33;97395.13;;;12.91;53.17
23616;BME280;11985;49.404;7.734;2023-06-04T00:54:36;97397.28;;;12.76;53.59
23616;BME280;11985;49.404;7.734;2023-06-04T00:59:39;97398.94;;;12.71;53.37
23616;BME280;11985;49.404;7.734;2023-06-04T01:04:44;97398.47;;;12.55;54.01
23616;BME280;11985;49.404;7.734;2023-06-04T01:09:49;97393.84;;;12.51;53.91
23616;BME280;11985;49.404;7.734;2023-06-04T01:14:50;97396.25;;;12.52;54.08
23616;BME280;11985;49.404;7.734;2023-06-04T01:20:07;97392.97;;;12.57;53.87
23616;BME280;11985;49.404;7.734;2023-06-04T01:25:15;97396.88;;;12.48;54.22
23616;BME280;11985;49.404;7.734;2023-06-04T01:30:24;97397.41;;;12.31;54.19
23616;BME280;11985;49.404;7.734;2023-06-04T01:35:26;97401.03;;;12.37;54.40
23616;BME280;11985;49.404;7.734;2023-06-04T01:40:30;97395.22;;;12.28;54.67
23616;BME280;11985;49.404;7.734;2023-06-04T01:45:32;97394.22;;;12.23;54.54
23616;BME280;11985;49.404;7.734;2023-06-04T01:50:33;97390.13;;;12.27;54.37
23616;BME280;11985;49.404;7.734;2023-06-04T01:55:36;97391.59;;;12.23;54.58
23616;BME280;11985;49.404;7.734;2023-06-04T02:00:38;97401.13;;;12.24;54.64
23616;BME280;11985;49.404;7.734;2023-06-04T02:05:40;97393.66;;;12.14;54.51
23616;BME280;11985;49.404;7.734;2023-06-04T02:10:42;97397.31;;;12.13;54.49
23616;BME280;11985;49.404;7.734;2023-06-04T02:15:44;97390.84;;;12.09;54.50
23616;BME280;11985;49.404;7.734;2023-06-04T02:20:46;97390.66;;;12.10;54.60
23616;BME280;11985;49.404;7.734;2023-06-04T02:25:49;97393.13;;;12.05;54.48
23616;BME280;11985;49.404;7.734;2023-06-04T02:30:51;97391.72;;;11.96;54.54
23616;BME280;11985;49.404;7.734;2023-06-04T02:35:53;97402.16;;;11.84;54.84
23616;BME280;11985;49.404;7.734;2023-06-04T02:40:57;97391.41;;;11.73;55.07
23616;BME280;11985;49.404;7.734;2023-06-04T02:45:58;97393.63;;;11.76;54.62
23616;BME280;11985;49.404;7.734;2023-06-04T02:51:00;97384.53;;;11.65;55.06
23616;BME280;11985;49.404;7.734;2023-06-04T02:56:03;97389.63;;;11.60;55.00
23616;BME280;11985;49.404;7.734;2023-06-04T03:01:05;97392.66;;;11.63;54.99
23616;BME280;11985;49.404;7.734;2023-06-04T03:06:07;97399.34;;;11.66;54.70
23616;BME280;11985;49.404;7.734;2023-06-04T03:11:10;97397.72;;;11.65;54.66
23616;BME280;11985;49.404;7.734;2023-06-04T03:16:11;97395.50;;;11.62;54.68
23616;BME280;11985;49.404;7.734;2023-06-04T03:21:14;97394.09;;;11.59;54.64
23616;BME280;11985;49.404;7.734;2023-06-04T03:26:17;97389.66;;;11.53;54.72
23616;BME280;11985;49.404;7.734;2023-06-04T03:31:18;97399.41;;;11.46;54.90
23616;BME280;11985;49.404;7.734;2023-06-04T03:36:20;97394.34;;;11.38;55.02
23616;BME280;11985;49.404;7.734;2023-06-04T03:41:33;97398.63;;;11.39;55.01
23616;BME280;11985;49.404;7.734;2023-06-04T03:46:34;97398.63;;;11.39;55.03
23616;BME280;11985;49.404;7.734;2023-06-04T03:51:36;97403.09;;;11.32;55.21
23616;BME280;11985;49.404;7.734;2023-06-04T03:56:39;97406.78;;;11.18;55.58
23616;BME280;11985;49.404;7.734;2023-06-04T04:01:41;97411.28;;;11.10;55.70
23616;BME280;11985;49.404;7.734;2023-06-04T04:06:43;97405.56;;;11.14;55.87
23616;BME280;11985;49.404;7.734;2023-06-04T04:11:46;97398.28;;;11.09;55.77
23616;BME280;11985;49.404;7.734;2023-06-04T04:16:47;97405.56;;;11.14;55.77
23616;BME280;11985;49.404;7.734;2023-06-04T04:21:49;97402.31;;;11.25;55.65
23616;BME280;11985;49.404;7.734;2023-06-04T04:26:52;97413.44;;;11.27;55.93
23616;BME280;11985;49.404;7.734;2023-06-04T04:31:54;97418.91;;;11.32;55.84
23616;BME280;11985;49.404;7.734;2023-06-04T04:36:57;97423.78;;;11.42;55.71
23616;BME280;11985;49.404;7.734;2023-06-04T04:41:59;97420.81;;;11.76;55.26
23616;BME280;11985;49.404;7.734;2023-06-04T04:47:01;97410.13;;;12.09;54.71
23616;BME280;11985;49.404;7.734;2023-06-04T04:52:03;97414.69;;;12.34;54.39
23616;BME280;11985;49.404;7.734;2023-06-04T04:57:06;97421.28;;;12.50;53.87
23616;BME280;11985;49.404;7.734;2023-06-04T05:02:08;97425.25;;;12.59;53.80
23616;BME280;11985;49.404;7.734;2023-06-04T05:07:10;97424.00;;;12.68;53.48
23616;BME280;11985;49.404;7.734;2023-06-04T05:12:13;97423.50;;;12.78;53.17
23616;BME280;11985;49.404;7.734;2023-06-04T05:17:14;97431.50;;;12.96;52.75
23616;BME280;11985;49.404;7.734;2023-06-04T05:22:16;97432.44;;;13.27;52.56
23616;BME280;11985;49.404;7.734;2023-06-04T05:27:21;97445.19;;;13.55;52.11
23616;BME280;11985;49.404;7.734;2023-06-04T05:32:23;97449.97;;;13.64;51.59
23616;BME280;11985;49.404;7.734;2023-06-04T05:37:28;97449.25;;;13.76;51.42
23616;BME280;11985;49.404;7.734;2023-06-04T05:42:31;97455.47;;;13.81;51.21
23616;BME280;11985;49.404;7.734;2023-06-04T05:47:33;97443.81;;;13.89;51.22
23616;BME280;11985;49.404;7.734;2023-06-04T05:52:34;97445.00;;;14.05;50.70
23616;BME280;11985;49.404;7.734;2023-06-04T05:57:38;97455.53;;;14.11;50.41
23616;BME280;11985;49.404;7.734;2023-06-04T06:02:40;97459.47;;;14.20;50.36
23616;BME280;11985;49.404;7.734;2023-06-04T06:07:41;97461.50;;;14.37;50.25
23616;BME280;11985;49.404;7.734;2023-06-04T06:12:45;97456.56;;;14.70;49.95
23616;BME280;11985;49.404;7.734;2023-06-04T06:17:46;97468.38;;;14.98;49.65
23616;BME280;11985;49.404;7.734;2023-06-04T06:22:48;97462.78;;;15.29;49.46
23616;BME280;11985;49.404;7.734;2023-06-04T06:27:51;97464.16;;;15.67;48.95
23616;BME280;11985;49.404;7.734;2023-06-04T06:32:53;97477.50;;;15.96;48.42
23616;BME280;11985;49.404;7.734;2023-06-04T06:37:54;97471.81;;;16.04;48.00
23616;BME280;11985;49.404;7.734;2023-06-04T06:42:57;97479.47;;;16.00;47.65
23616;BME280;11985;49.404;7.734;2023-06-04T06:47:59;97479.53;;;16.17;47.80
23616;BME280;11985;49.404;7.734;2023-06-04T06:53:02;97488.47;;;16.40;47.27
23616;BME280;11985;49.404;7.734;2023-06-04T06:58:05;97492.22;;;16.15;46.97
23616;BME280;11985;49.404;7.734;2023-06-04T07:03:06;97499.91;;;16.00;47.49
23616;BME280;11985;49.404;7.734;2023-06-04T07:08:08;97497.66;;;16.20;47.44
23616;BME280;11985;49.404;7.734;2023-06-04T07:13:11;97495.50;;;16.46;47.39
23616;BME280;11985;49.404;7.734;2023-06-04T07:18:13;97491.13;;;16.68;46.60
23616;BME280;11985;49.404;7.734;2023-06-04T07:23:15;97494.56;;;17.14;46.18
23616;BME280;11985;49.404;7.734;2023-06-04T07:28:17;97495.44;;;17.53;45.80
23616;BME280;11985;49.404;7.734;2023-06-04T07:33:19;97503.56;;;17.80;44.90
23616;BME280;11985;49.404;7.734;2023-06-04T07:38:21;97506.59;;;18.06;44.65
23616;BME280;11985;49.404;7.734;2023-06-04T07:43:24;97502.00;;;18.23;43.96
23616;BME280;11985;49.404;7.734;2023-06-04T07:48:25;97504.22;;;18.31;43.86
23616;BME280;11985;49.404;7.734;2023-06-04T07:53:30;97508.06;;;17.97;43.67
23616;BME280;11985;49.404;7.734;2023-06-04T07:58:33;97506.41;;;17.57;44.04
23616;BME280;11985;49.404;7.734;2023-06-04T08:03:35;97506.69;;;17.38;44.36
23616;BME280;11985;49.404;7.734;2023-06-04T08:08:37;97502.84;;;17.68;44.90
23616;BME280;11985;49.404;7.734;2023-06-04T08:13:40;97500.16;;;18.51;44.57
23616;BME280;11985;49.404;7.734;2023-06-04T08:18:42;97496.91;;;18.43;43.61
23616;BME280;11985;49.404;7.734;2023-06-04T08:23:43;97506.59;;;18.77;43.55
23616;BME280;11985;49.404;7.734;2023-06-04T08:28:47;97509.75;;;19.01;43.25
23616;BME280;11985;49.404;7.734;2023-06-04T08:33:49;97516.59;;;19.56;43.02
23616;BME280;11985;49.404;7.734;2023-06-04T08:38:50;97512.06;;;19.93;42.22
23616;BME280;11985;49.404;7.734;2023-06-04T08:43:55;97516.53;;;20.40;41.69
23616;BME280;11985;49.404;7.734;2023-06-04T08:49:00;97524.97;;;20.12;41.47
23616;BME280;11985;49.404;7.734;2023-06-04T08:54:03;97518.84;;;20.26;41.21
23616;BME280;11985;49.404;7.734;2023-06-04T08:59:07;97520.34;;;20.54;41.06
23616;BME280;11985;49.404;7.734;2023-06-04T09:04:10;97524.66;;;20.71;40.27
23616;BME280;11985;49.404;7.734;2023-06-04T09:09:12;97531.16;;;21.05;40.34
23616;BME280;11985;49.404;7.734;2023-06-04T09:14:17;97531.47;;;21.29;39.68
23616;BME280;11985;49.404;7.734;2023-06-04T09:19:20;97528.75;;;21.24;39.34
23616;BME280;11985;49.404;7.734;2023-06-04T09:24:23;97526.91;;;21.55;38.82
23616;BME280;11985;49.404;7.734;2023-06-04T09:29:26;97529.53;;;21.76;38.96
23616;BME280;11985;49.404;7.734;2023-06-04T09:34:28;97526.31;;;21.84;38.82
23616;BME280;11985;49.404;7.734;2023-06-04T09:39:30;97521.72;;;22.00;37.92
23616;BME280;11985;49.404;7.734;2023-06-04T09:44:42;97518.22;;;21.99;38.08
23616;BME280;11985;49.404;7.734;2023-06-04T09:49:45;97517.59;;;22.33;37.17
23616;BME280;11985;49.404;7.734;2023-06-04T09:54:46;97518.59;;;22.47;36.65
23616;BME280;11985;49.404;7.734;2023-06-04T09:59:50;97520.13;;;22.63;36.52
23616;BME280;11985;49.404;7.734;2023-06-04T10:04:54;97516.19;;;23.00;35.81
23616;BME280;11985;49.404;7.734;2023-06-04T10:09:57;97510.41;;;23.17;34.87
23616;BME280;11985;49.404;7.734;2023-06-04T10:15:02;97518.97;;;22.80;34.65
23616;BME280;11985;49.404;7.734;2023-06-04T10:20:08;97515.16;;;22.86;34.30
23616;BME280;11985;49.404;7.734;2023-06-04T10:25:10;97510.91;;;22.80;33.66
23616;BME280;11985;49.404;7.734;2023-06-04T10:30:14;97508.19;;;22.85;33.90
23616;BME280;11985;49.404;7.734;2023-06-04T10:35:15;97509.16;;;23.04;33.23
23616;BME280;11985;49.404;7.734;2023-06-04T10:40:17;97505.44;;;23.34;33.21
23616;BME280;11985;49.404;7.734;2023-06-04T10:45:28;97504.16;;;23.56;32.60
23616;BME280;11985;49.404;7.734;2023-06-04T10:50:31;97504.22;;;23.51;32.01
23616;BME280;11985;49.404;7.734;2023-06-04T10:55:43;97510.47;;;23.41;31.58
23616;BME280;11985;49.404;7.734;2023-06-04T11:00:46;97518.53;;;23.41;31.58
23616;BME280;11985;49.404;7.734;2023-06-04T11:05:49;97520.88;;;23.18;31.32
23616;BME280;11985;49.404;7.734;2023-06-04T11:10:51;97513.53;;;23.29;31.56
23616;BME280;11985;49.404;7.734;2023-06-04T11:15:54;97514.97;;;23.51;31.61
23616;BME280;11985;49.404;7.734;2023-06-04T11:21:00;97517.59;;;23.85;31.23
23616;BME280;11985;49.404;7.734;2023-06-04T11:26:02;97516.91;;;23.98;31.35
23616;BME280;11985;49.404;7.734;2023-06-04T11:31:04;97503.31;;;23.60;31.34
23616;BME280;11985;49.404;7.734;2023-06-04T11:36:08;97510.63;;;23.84;32.21
23616;BME280;11985;49.404;7.734;2023-06-04T11:41:10;97495.22;;;23.65;32.02
23616;BME280;11985;49.404;7.734;2023-06-04T11:46:13;97508.88;;;23.40;32.13
23616;BME280;11985;49.404;7.734;2023-06-04T11:51:15;97508.13;;;23.63;32.40
23616;BME280;11985;49.404;7.734;2023-06-04T11:56:17;97511.38;;;23.65;31.90
23616;BME280;11985;49.404;7.734;2023-06-04T12:01:21;97492.66;;;23.50;32.05
23616;BME280;11985;49.404;7.734;2023-06-04T12:06:23;97499.03;;;23.88;32.25
23616;BME280;11985;49.404;7.734;2023-06-04T12:11:26;97495.34;;;24.27;31.99
23616;BME280;11985;49.404;7.734;2023-06-04T12:16:29;97498.59;;;24.48;32.26
23616;BME280;11985;49.404;7.734;2023-06-04T12:21:31;97487.84;;;24.67;31.61
23616;BME280;11985;49.404;7.734;2023-06-04T12:26:33;97489.81;;;24.61;31.20
23616;BME280;11985;49.404;7.734;2023-06-04T12:31:40;97475.97;;;24.49;30.98
23616;BME280;11985;49.404;7.734;2023-06-04T12:36:42;97473.25;;;24.06;31.19
23616;BME280;11985;49.404;7.734;2023-06-04T12:41:45;97477.47;;;24.12;31.46
23616;BME280;11985;49.404;7.734;2023-06-04T12:46:48;97478.22;;;24.80;31.84
23616;BME280;11985;49.404;7.734;2023-06-04T12:51:49;97485.88;;;24.72;31.15
23616;BME280;11985;49.404;7.734;2023-06-04T12:56:51;97477.72;;;24.78;31.05
23616;BME280;11985;49.404;7.734;2023-06-04T13:01:55;97486.56;;;24.97;31.19
23616;BME280;11985;49.404;7.734;2023-06-04T13:06:56;97479.88;;;24.75;30.60
23616;BME280;11985;49.404;7.734;2023-06-04T13:12:00;97468.59;;;25.11;30.61
23616;BME280;11985;49.404;7.734;2023-06-04T13:17:03;97480.03;;;25.22;30.06
23616;BME280;11985;49.404;7.734;2023-06-04T13:22:05;97484.97;;;24.96;29.99
23616;BME280;11985;49.404;7.734;2023-06-04T13:27:07;97479.47;;;24.68;30.41
23616;BME280;11985;49.404;7.734;2023-06-04T13:32:09;97469.38;;;24.93;30.04
23616;BME280;11985;49.404;7.734;2023-06-04T13:37:11;97478.06;;;25.41;29.91
23616;BME280;11985;49.404;7.734;2023-06-04T13:42:13;97478.94;;;25.37;29.31
23616;BME280;11985;49.404;7.734;2023-06-04T13:47:16;97475.81;;;24.59;29.34
23616;BME280;11985;49.404;7.734;2023-06-04T13:52:18;97483.31;;;25.00;29.52
23616;BME280;11985;49.404;7.734;2023-06-04T13:57:20;97466.00;;;24.68;29.30
23616;BME280;11985;49.404;7.734;2023-06-04T14:02:23;97467.53;;;24.74;29.73
23616;BME280;11985;49.404;7.734;2023-06-04T14:07:24;97467.22;;;24.57;29.45
23616;BME280;11985;49.404;7.734;2023-06-04T14:12:26;97458.38;;;24.38;29.43
23616;BME280;11985;49.404;7.734;2023-06-04T14:17:29;97464.19;;;24.83;29.22
23616;BME280;11985;49.404;7.734;2023-06-04T14:22:30;97458.56;;;25.31;29.06
23616;BME280;11985;49.404;7.734;2023-06-04T14:27:33;97457.41;;;25.64;28.57
23616;BME280;11985;49.404;7.734;2023-06-04T14:32:36;97463.16;;;25.30;28.23
23616;BME280;11985;49.404;7.734;2023-06-04T14:37:40;97450.66;;;25.20;28.59
23616;BME280;11985;49.404;7.734;2023-06-04T14:42:42;97449.72;;;25.44;28.09
23616;BME280;11985;49.404;7.734;2023-06-04T14:47:45;97456.63;;;25.50;27.87
23616;BME280;11985;49.404;7.734;2023-06-04T14:52:47;97455.69;;;25.27;27.88
23616;BME280;11985;49.404;7.734;2023-06-04T14:57:50;97456.28;;;25.05;27.61
23616;BME280;11985;49.404;7.734;2023-06-04T15:02:53;97438.28;;;25.19;27.86
23616;BME280;11985;49.404;7.734;2023-06-04T15:07:54;97442.06;;;25.18;27.61
23616;BME280;11985;49.404;7.734;2023-06-04T15:12:56;97445.50;;;25.05;27.18
23616;BME280;11985;49.404;7.734;2023-06-04T15:17:59;97437.81;;;24.42;26.90
23616;BME280;11985;49.404;7.734;2023-06-04T15:23:01;97438.84;;;24.46;27.32
23616;BME280;11985;49.404;7.734;2023-06-04T15:28:03;97437.31;;;24.78;27.29
23616;BME280;11985;49.404;7.734;2023-06-04T15:33:05;97423.91;;;24.54;26.91
23616;BME280;11985;49.404;7.734;2023-06-04T15:38:07;97428.09;;;24.46;26.92
23616;BME280;11985;49.404;7.734;2023-06-04T15:43:09;97429.19;;;24.45;26.87
23616;BME280;11985;49.404;7.734;2023-06-04T15:48:12;97417.22;;;24.32;26.74
23616;BME280;11985;49.404;7.734;2023-06-04T15:53:13;97418.19;;;24.60;26.70
23616;BME280;11985;49.404;7.734;2023-06-04T15:58:15;97410.59;;;24.62;26.92
23616;BME280;11985;49.404;7.734;2023-06-04T16:03:18;97404.72;;;25.12;26.88
23616;BME280;11985;49.404;7.734;2023-06-04T16:08:20;97411.81;;;24.89;26.50
23616;BME280;11985;49.404;7.734;2023-06-04T16:13:21;97408.16;;;24.66;25.62
23616;BME280;11985;49.404;7.734;2023-06-04T16:18:24;97413.22;;;24.30;25.30
23616;BME280;11985;49.404;7.734;2023-06-04T16:23:26;97415.84;;;24.35;24.81
23616;BME280;11985;49.404;7.734;2023-06-04T16:28:28;97401.16;;;24.46;24.33
23616;BME280;11985;49.404;7.734;2023-06-04T16:33:31;97397.06;;;24.67;23.93
23616;BME280;11985;49.404;7.734;2023-06-04T16:38:33;97404.16;;;24.44;23.66
23616;BME280;11985;49.404;7.734;2023-06-04T16:43:34;97399.13;;;24.38;23.66
23616;BME280;11985;49.404;7.734;2023-06-04T16:48:37;97400.94;;;24.42;23.77
23616;BME280;11985;49.404;7.734;2023-06-04T16:53:39;97398.41;;;24.51;24.19
23616;BME280;11985;49.404;7.734;2023-06-04T16:58:40;97399.56;;;24.45;24.12
23616;BME280;11985;49.404;7.734;2023-06-04T17:03:45;97399.28;;;24.65;24.28
23616;BME280;11985;49.404;7.734;2023-06-04T17:08:47;97399.47;;;24.69;24.15
23616;BME280;11985;49.404;7.734;2023-06-04T17:13:49;97397.25;;;24.14;24.40
23616;BME280;11985;49.404;7.734;2023-06-04T17:18:52;97396.69;;;23.75;24.28
23616;BME280;11985;49.404;7.734;2023-06-04T17:23:53;97398.25;;;23.28;24.55
23616;BME280;11985;49.404;7.734;2023-06-04T17:28:56;97401.75;;;22.99;25.07
23616;BME280;11985;49.404;7.734;2023-06-04T17:33:59;97401.16;;;22.68;24.90
23616;BME280;11985;49.404;7.734;2023-06-04T17:39:00;97396.84;;;22.38;25.48
23616;BME280;11985;49.404;7.734;2023-06-04T17:44:02;97397.19;;;22.21;25.58
23616;BME280;11985;49.404;7.734;2023-06-04T17:49:05;97397.81;;;21.98;25.89
23616;BME280;11985;49.404;7.734;2023-06-04T17:54:10;97397.13;;;21.77;26.28
23616;BME280;11985;49.404;7.734;2023-06-04T17:59:12;97397.38;;;21.70;26.58
23616;BME280;11985;49.404;7.734;2023-06-04T18:04:15;97397.19;;;21.56;26.86
23616;BME280;11985;49.404;7.734;2023-06-04T18:09:17;97404.97;;;21.43;27.16
23616;BME280;11985;49.404;7.734;2023-06-04T18:14:19;97404.47;;;21.35;27.47
23616;BME280;11985;49.404;7.734;2023-06-04T18:19:22;97410.09;;;21.14;27.78
23616;BME280;11985;49.404;7.734;2023-06-04T18:24:23;97407.69;;;21.02;27.95
23616;BME280;11985;49.404;7.734;2023-06-04T18:29:25;97408.25;;;20.89;28.13
23616;BME280;11985;49.404;7.734;2023-06-04T18:34:28;97414.91;;;20.76;28.67
23616;BME280;11985;49.404;7.734;2023-06-04T18:39:30;97415.72;;;20.61;28.69
23616;BME280;11985;49.404;7.734;2023-06-04T18:44:31;97410.03;;;20.42;29.24
23616;BME280;11985;49.404;7.734;2023-06-04T18:49:34;97412.72;;;20.27;29.53
23616;BME280;11985;49.404;7.734;2023-06-04T18:54:36;97417.44;;;20.10;29.97
23616;BME280;11985;49.404;7.734;2023-06-04T18:59:38;97417.41;;;19.89;30.62
23616;BME280;11985;49.404;7.734;2023-06-04T19:04:41;97424.25;;;19.70;31.34
23616;BME280;11985;49.404;7.734;2023-06-04T19:09:42;97422.50;;;19.48;32.40
23616;BME280;11985;49.404;7.734;2023-06-04T19:14:44;97421.56;;;19.22;32.60
23616;BME280;11985;49.404;7.734;2023-06-04T19:19:47;97424.66;;;19.09;33.26
23616;BME280;11985;49.404;7.734;2023-06-04T19:24:49;97430.47;;;19.01;34.38
23616;BME280;11985;49.404;7.734;2023-06-04T19:29:51;97437.22;;;18.77;35.01
23616;BME280;11985;49.404;7.734;2023-06-04T19:34:55;97444.38;;;18.44;36.13
23616;BME280;11985;49.404;7.734;2023-06-04T19:39:57;97450.66;;;18.11;37.28
23616;BME280;11985;49.404;7.734;2023-06-04T19:44:59;97461.38;;;17.72;38.15
23616;BME280;11985;49.404;7.734;2023-06-04T19:50:03;97459.31;;;17.40;39.16
23616;BME280;11985;49.404;7.734;2023-06-04T19:55:05;97466.81;;;17.10;39.85
23616;BME280;11985;49.404;7.734;2023-06-04T20:00:09;97470.94;;;16.84;40.88
23616;BME280;11985;49.404;7.734;2023-06-04T20:05:12;97483.50;;;16.60;41.51
23616;BME280;11985;49.404;7.734;2023-06-04T20:10:15;97487.22;;;16.59;41.67
23616;BME280;11985;49.404;7.734;2023-06-04T20:15:18;97482.09;;;16.69;42.05
23616;BME280;11985;49.404;7.734;2023-06-04T20:20:21;97477.97;;;16.90;41.40
23616;BME280;11985;49.404;7.734;2023-06-04T20:25:22;97479.50;;;17.03;41.14
23616;BME280;11985;49.404;7.734;2023-06-04T20:30:24;97487.00;;;17.06;41.01
23616;BME280;11985;49.404;7.734;2023-06-04T20:35:27;97486.84;;;16.96;41.30
23616;BME280;11985;49.404;7.734;2023-06-04T20:40:29;97478.88;;;16.67;41.72
23616;BME280;11985;49.404;7.734;2023-06-04T20:45:30;97479.50;;;16.57;41.51
23616;BME280;11985;49.404;7.734;2023-06-04T20:50:33;97484.63;;;16.47;42.15
23616;BME280;11985;49.404;7.734;2023-06-04T20:55:35;97487.97;;;16.43;42.38
23616;BME280;11985;49.404;7.734;2023-06-04T21:00:36;97498.56;;;16.26;42.59
23616;BME280;11985;49.404;7.734;2023-06-04T21:05:39;97495.28;;;16.07;42.82
23616;BME280;11985;49.404;7.734;2023-06-04T21:10:41;97500.94;;;15.99;42.85
23616;BME280;11985;49.404;7.734;2023-06-04T21:15:43;97505.13;;;15.83;43.48
23616;BME280;11985;49.404;7.734;2023-06-04T21:20:46;97514.84;;;15.77;43.45
23616;BME280;11985;49.404;7.734;2023-06-04T21:25:47;97508.81;;;15.82;43.40
23616;BME280;11985;49.404;7.734;2023-06-04T21:30:49;97506.06;;;15.65;43.98
23616;BME280;11985;49.404;7.734;2023-06-04T21:35:52;97507.53;;;15.38;44.20
23616;BME280;11985;49.404;7.734;2023-06-04T21:40:54;97512.03;;;15.37;44.29
23616;BME280;11985;49.404;7.734;2023-06-04T21:45:55;97505.78;;;15.43;44.13
23616;BME280;11985;49.404;7.734;2023-06-04T21:50:58;97514.34;;;15.34;44.54
23616;BME280;11985;49.404;7.734;2023-06-04T21:56:00;97513.41;;;15.16;44.86
23616;BME280;11985;49.404;7.734;2023-06-04T22:01:01;97499.19;;;14.99;45.06
23616;BME280;11985;49.404;7.734;2023-06-04T22:06:04;97505.31;;;14.99;45.36
23616;BME280;11985;49.404;7.734;2023-06-04T22:11:06;97503.59;;;15.05;45.00
23616;BME280;11985;49.404;7.734;2023-06-04T22:16:08;97504.47;;;14.99;44.92
23616;BME280;11985;49.404;7.734;2023-06-04T22:21:11;97506.72;;;15.14;44.59
23616;BME280;11985;49.404;7.734;2023-06-04T22:26:13;97507.06;;;15.17;44.46
23616;BME280;11985;49.404;7.734;2023-06-04T22:31:14;97509.47;;;15.07;44.63
23616;BME280;11985;49.404;7.734;2023-06-04T22:36:17;97509.19;;;14.85;45.00
23616;BME280;11985;49.404;7.734;2023-06-04T22:41:19;97512.13;;;14.65;45.53
23616;BME280;11985;49.404;7.734;2023-06-04T22:46:21;97517.03;;;14.50;45.64
23616;BME280;11985;49.404;7.734;2023-06-04T22:51:24;97512.16;;;14.47;45.64
23616;BME280;11985;49.404;7.734;2023-06-04T22:56:25;97509.34;;;14.42;46.05
23616;BME280;11985;49.404;7.734;2023-06-04T23:01:27;97508.25;;;14.31;46.15
23616;BME280;11985;49.404;7.734;2023-06-04T23:06:30;97508.16;;;14.38;45.99
23616;BME280;11985;49.404;7.734;2023-06-04T23:11:31;97507.31;;;14.44;45.63
23616;BME280;11985;49.404;7.734;2023-06-04T23:16:33;97499.50;;;14.49;45.51
23616;BME280;11985;49.404;7.734;2023-06-04T23:21:36;97499.13;;;14.45;45.69
23616;BME280;11985;49.404;7.734;2023-06-04T23:26:38;97500.22;;;14.38;45.87
23616;BME280;11985;49.404;7.734;2023-06-04T23:31:40;97498.47;;;14.32;45.71
23616;BME280;11985;49.404;7.734;2023-06-04T23:36:43;97496.94;;;14.24;45.85
23616;BME280;11985;49.404;7.734;2023-06-04T23:41:44;97493.06;;;14.08;46.34
23616;BME280;11985;49.404;7.734;2023-06-04T23:46:46;97492.94;;;13.85;46.86
23616;BME280;11985;49.404;7.734;2023-06-04T23:51:49;97498.94;;;13.73;47.11
23616;BME280;11985;49.404;7.734;2023-06-04T23:56:50;97495.63;;;13.60;47.41
